sensor_id;sensor_type;location;lat;lon;timestamp;pressure;altitude;pressure_sealevel;temperature;humidity
64687;BME280;51113;53.646;-113.674;2023-04-21T21:56:32;94812.66;;;5.97;35.75
64687;BME280;51113;53.646;-113.674;2023-04-21T21:59:01;94815.50;;;5.16;38.39
64687;BME280;51113;53.646;-113.674;2023-04-21T22:01:30;94825.34;;;4.86;39.40
64687;BME280;51113;53.646;-113.674;2023-04-21T22:03:58;94822.91;;;4.51;39.44
64687;BME280;51113;53.646;-113.674;2023-04-21T22:06:26;94814.94;;;4.33;39.99
64687;BME280;51113;53.646;-113.674;2023-04-21T22:08:55;94819.72;;;4.49;39.55
64687;BME280;51113;53.646;-113.674;2023-04-21T22:11:23;94818.28;;;4.27;40.25
64687;BME280;51113;53.646;-113.674;2023-04-21T22:13:51;94826.22;;;4.39;39.92
64687;BME280;51113;53.646;-113.674;2023-04-21T22:16:19;94823.78;;;4.24;40.95
64687;BME280;51113;53.646;-113.674;2023-04-21T22:18:48;94832.31;;;4.31;41.53
64687;BME280;51113;53.646;-113.674;2023-04-21T22:21:16;94829.16;;;4.29;41.60
64687;BME280;51113;53.646;-113.674;2023-04-21T22:23:45;94801.72;;;3.95;41.21
64687;BME280;51113;53.646;-113.674;2023-04-21T22:26:13;94833.41;;;4.09;41.50
64687;BME280;51113;53.646;-113.674;2023-04-21T22:28:41;94832.88;;;4.20;41.57
64687;BME280;51113;53.646;-113.674;2023-04-21T22:31:10;94824.03;;;4.36;41.52
64687;BME280;51113;53.646;-113.674;2023-04-21T22:33:38;94828.50;;;4.14;42.29
64687;BME280;51113;53.646;-113.674;2023-04-21T22:36:06;94820.63;;;4.22;41.66
64687;BME280;51113;53.646;-113.674;2023-04-21T22:38:35;94825.38;;;4.25;42.51
64687;BME280;51113;53.646;-113.674;2023-04-21T22:41:04;94811.63;;;3.98;43.07
64687;BME280;51113;53.646;-113.674;2023-04-21T22:43:33;94821.59;;;3.80;42.44
64687;BME280;51113;53.646;-113.674;2023-04-21T22:46:03;94821.75;;;3.72;43.68
64687;BME280;51113;53.646;-113.674;2023-04-21T22:48:32;94819.69;;;3.88;43.41
64687;BME280;51113;53.646;-113.674;2023-04-21T22:51:04;94823.47;;;3.93;43.01
64687;BME280;51113;53.646;-113.674;2023-04-21T22:53:33;94823.19;;;3.81;43.27
64687;BME280;51113;53.646;-113.674;2023-04-21T22:56:02;94819.75;;;4.02;43.27
64687;BME280;51113;53.646;-113.674;2023-04-21T22:58:31;94820.81;;;3.79;42.99
64687;BME280;51113;53.646;-113.674;2023-04-21T23:01:00;94814.53;;;3.88;42.96
64687;BME280;51113;53.646;-113.674;2023-04-21T23:03:29;94825.72;;;3.74;43.49
64687;BME280;51113;53.646;-113.674;2023-04-21T23:05:58;94816.25;;;3.75;42.82
64687;BME280;51113;53.646;-113.674;2023-04-21T23:08:26;94813.91;;;3.80;43.92
64687;BME280;51113;53.646;-113.674;2023-04-21T23:10:55;94820.13;;;3.64;43.27
64687;BME280;51113;53.646;-113.674;2023-04-21T23:13:23;94809.59;;;3.87;43.13
64687;BME280;51113;53.646;-113.674;2023-04-21T23:15:52;94808.94;;;3.78;44.41
64687;BME280;51113;53.646;-113.674;2023-04-21T23:18:21;94806.16;;;3.73;42.63
64687;BME280;51113;53.646;-113.674;2023-04-21T23:20:49;94805.84;;;3.89;43.07
64687;BME280;51113;53.646;-113.674;2023-04-21T23:23:18;94808.09;;;4.06;42.91
64687;BME280;51113;53.646;-113.674;2023-04-21T23:25:46;94807.56;;;3.76;42.52
64687;BME280;51113;53.646;-113.674;2023-04-21T23:28:15;94822.94;;;3.69;42.60
64687;BME280;51113;53.646;-113.674;2023-04-21T23:30:43;94804.38;;;3.74;43.00
64687;BME280;51113;53.646;-113.674;2023-04-21T23:33:12;94808.00;;;3.86;42.43
64687;BME280;51113;53.646;-113.674;2023-04-21T23:35:41;94806.63;;;3.90;42.54
64687;BME280;51113;53.646;-113.674;2023-04-21T23:38:09;94806.72;;;3.69;43.15
64687;BME280;51113;53.646;-113.674;2023-04-21T23:40:38;94810.91;;;3.76;42.67
64687;BME280;51113;53.646;-113.674;2023-04-21T23:43:06;94801.44;;;3.77;43.31
64687;BME280;51113;53.646;-113.674;2023-04-21T23:45:35;94803.47;;;3.88;42.91
64687;BME280;51113;53.646;-113.674;2023-04-21T23:48:03;94810.19;;;3.89;43.32
64687;BME280;51113;53.646;-113.674;2023-04-21T23:50:32;94808.28;;;3.63;43.47
64687;BME280;51113;53.646;-113.674;2023-04-21T23:53:00;94808.75;;;3.80;42.81
64687;BME280;51113;53.646;-113.674;2023-04-21T23:55:29;94804.34;;;3.67;43.32
64687;BME280;51113;53.646;-113.674;2023-04-21T23:57:58;94801.50;;;3.55;43.86
